Terminal Aerodrome Forecast
Issued by NWS Amarillo, TX

Home | Current Version | Previous Version | Text Only | Print | Product List | Glossary On
Versions: 1 2 3 4 5 6 7 8 9 10 11 12 13 14 15 16 17 18 19
000
FTUS44 KAMA 201001 AAB
TAFDHT
TAF AMD
KDHT 201001Z 2010/2106 25010G20KT 3SM BR BKN001
     FM201130 26026G37KT P6SM SCT300
     FM210000 26012KT P6SM SCT300=

USA.gov is the U.S. government's official web portal to all federal, state and local government web resources and services.